Terminal Aerodrome Forecast
Issued by NWS Twin Cities, MN

Home | Current Version | Previous Version | Text Only | Print | Product List | Glossary Off
Versions: 1 2 3 4 5 6 7 8 9 10 11 12 13 14

718
FTUS43 KMPX 160030 CCA
TAFEAU
TAF COR
KEAU 160030Z 1600/1624 32010KT P6SM BKN035
      TEMPO 1600/1601 BKN030
     FM160500 31010KT P6SM SCT100
     FM160700 31010KT P6SM SKC
     FM161600 25007KT P6SM SKC=

USA.gov is the U.S. government's official web portal to all federal, state and local government web resources and services.